Accueil
METAR-TAF:

METAR-TAF

Aéroports :

Bad Vöslau, Autriche

latitude: 47-57-52N, longitude: 016-15-34E, altitude: 233 m

Observation

Le bulletin a été fait il y a 8 heures et 6 minutes, à 15:00 UTC
Vent 4 kt de sud/sud-est
Température -1°C
Humidité 100%
Pression
Visibilité: 2000 m
brume

METAR: LOAV 031500Z 15004KT 2000 BR OVC010ST M01/M01

Heure: 00:06 (23:06 UTC)

Prévision

Le bulletin a été fait il y a 11 heures et 41 minutes, à 11:25 UTC
Prévision valable du 03 à 12 UTC au 03 à 21 UTC
Vent 3 kt de direction variable
Visibilité: 1500 m
Ciel couvert à une hauteur de 1200 ft
Temporairement
du 03 à 15 UTC au 03 à 21 UTC
Visibilité: 0800 m
Nuages fragmentés à une hauteur de 800 ft
brouillard

TAF: LOAV 031125Z 0312/0321 VRB03KT 1500 OVC012 TEMPO 0315/0321 0800 FG BKN008

Observations et prévisions météorologiques de plus de 4000 aéroports (messages METAR et TAF).

Les stations disponibles sont représentées par des disques jaunes et rouges sur la carte.

Passer la souris dessus pour voir le nom de la station.

Cliquer dessus pour voir les observations et prévisions météorologiques.

Pour changer de carte: cliquez sur les boutons verts avec une croix noire pour zoomer, sur le bouton vert avec un tiret pour effectuer un zoom arrière, ou sur les flèches vertes pour les cartes adjacentes.


METAR-TAF: